Time;durP1;ratioP1;P1;durP2;ratioP2;P2;SDS_P1;SDS_P2;PMS_P1;PMS_P2;Temp;Humidity;BMP_temperature;BMP_pressure;BME280_temperature;BME280_humidity;BME280_pressure;Samples;Min_cycle;Max_cycle;Signal;HPM_P1;HPM_P2
2022/05/07 00:01:03;;;;;;;7.93;4.13;;;;;;;19.90;59.44;100891.91;5032423;28;20180;-61
2022/05/07 00:03:29;;;;;;;4.70;3.27;;;;;;;19.89;59.52;100893.97;5032895;28;20697;-61
2022/05/07 00:05:54;;;;;;;8.70;3.60;;;;;;;19.88;59.57;100892.31;5031519;28;20961;-61
2022/05/07 00:08:20;;;;;;;8.00;4.30;;;;;;;19.89;59.72;100891.09;5031827;28;20173;-61
2022/05/07 00:10:45;;;;;;;6.63;3.70;;;;;;;19.89;59.41;100882.50;5032866;28;20195;-61
2022/05/07 00:13:11;;;;;;;6.60;3.20;;;;;;;19.90;59.67;100887.03;5031925;28;20626;-61
2022/05/07 00:15:36;;;;;;;5.17;3.20;;;;;;;19.90;59.78;100892.75;5031163;28;20172;-61
2022/05/07 00:18:03;;;;;;;6.20;3.40;;;;;;;19.89;59.79;100887.41;5030482;28;20635;-61
2022/05/07 00:20:28;;;;;;;5.10;3.00;;;;;;;19.89;59.86;100884.53;5013735;28;20173;-61
2022/05/07 00:22:54;;;;;;;7.13;3.27;;;;;;;19.89;59.64;100882.50;5030857;28;20966;-61
2022/05/07 00:25:20;;;;;;;5.73;3.07;;;;;;;19.89;59.84;100887.41;5031213;28;20259;-61
2022/05/07 00:27:45;;;;;;;7.30;3.53;;;;;;;19.88;59.89;100886.59;5031835;28;20529;-61
2022/05/07 00:30:11;;;;;;;5.03;2.80;;;;;;;19.89;60.00;100882.50;5031881;28;20220;-61
2022/05/07 00:32:36;;;;;;;6.63;3.43;;;;;;;19.89;59.71;100884.53;5031491;28;20235;-61
2022/05/07 00:35:01;;;;;;;5.00;3.10;;;;;;;19.87;59.85;100876.31;5032356;28;20623;-61
2022/05/07 00:37:27;;;;;;;5.40;3.13;;;;;;;19.88;59.70;100880.84;5031730;28;20160;-61
2022/05/07 00:39:52;;;;;;;5.03;3.07;;;;;;;19.84;59.87;100874.22;5031653;28;20637;-61
2022/05/07 00:42:18;;;;;;;6.43;3.47;;;;;;;19.85;60.04;100875.03;5031057;28;20165;-61
2022/05/07 00:44:43;;;;;;;5.70;3.70;;;;;;;19.84;59.99;100873.38;5031436;28;20153;-61
2022/05/07 00:47:15;;;;;;;5.00;3.17;;;;;;;19.84;59.78;100870.50;5030518;28;20567;-61
2022/05/07 00:49:45;;;;;;;6.00;3.30;;;;;;;19.84;59.86;100868.47;5030683;28;20548;-61
2022/05/07 00:52:10;;;;;;;4.80;3.30;;;;;;;19.83;59.91;100865.97;5014046;28;20765;-61
2022/05/07 00:54:36;;;;;;;6.67;3.10;;;;;;;19.82;59.82;100870.06;5032034;28;20415;-61
2022/05/07 00:57:02;;;;;;;5.87;3.23;;;;;;;19.82;60.07;100870.88;5013723;28;20191;-61
2022/05/07 00:59:27;;;;;;;6.00;3.10;;;;;;;19.81;60.15;100866.34;5030769;28;20423;-61
2022/05/07 01:01:53;;;;;;;4.67;2.90;;;;;;;19.82;60.25;100864.34;5028956;28;20570;-61
2022/05/07 01:04:18;;;;;;;6.00;3.33;;;;;;;19.82;60.14;100870.88;5029935;28;20165;-61
2022/05/07 01:06:44;;;;;;;5.63;3.70;;;;;;;19.80;60.03;100867.56;5029731;28;20168;-61
2022/05/07 01:09:10;;;;;;;7.07;3.00;;;;;;;19.79;60.20;100868.78;5029855;28;20171;-61
2022/05/07 01:11:36;;;;;;;4.27;2.80;;;;;;;19.80;60.23;100870.44;5029339;28;20185;-61
2022/05/07 01:14:01;;;;;;;5.33;2.43;;;;;;;19.78;60.21;100870.00;5029113;28;20872;-61
2022/05/07 01:16:27;;;;;;;3.97;2.90;;;;;;;19.77;60.15;100865.44;5030005;28;20181;-61
2022/05/07 01:18:52;;;;;;;6.57;3.17;;;;;;;19.78;60.19;100869.16;5029896;28;20532;-61
2022/05/07 01:21:18;;;;;;;6.30;3.10;;;;;;;19.77;60.28;100871.16;5029348;28;20183;-61
2022/05/07 01:23:44;;;;;;;5.70;2.93;;;;;;;19.76;60.30;100866.66;5030108;28;20591;-61
2022/05/07 01:26:10;;;;;;;5.17;2.90;;;;;;;19.76;60.34;100869.53;5030716;28;20262;-61
2022/05/07 01:28:36;;;;;;;4.97;2.47;;;;;;;19.76;60.18;100875.25;5031078;28;20538;-61
2022/05/07 01:31:01;;;;;;;5.20;2.93;;;;;;;19.76;60.31;100875.25;5031065;28;20558;-61
2022/05/07 01:33:27;;;;;;;7.03;3.00;;;;;;;19.75;60.55;100885.06;5031337;28;20208;-61
2022/05/07 01:35:52;;;;;;;5.30;3.30;;;;;;;19.74;60.47;100874.81;5029990;28;20275;-61
2022/05/07 01:38:18;;;;;;;5.10;2.87;;;;;;;19.74;60.55;100883.41;5031105;28;20176;-61
2022/05/07 01:40:43;;;;;;;6.60;2.70;;;;;;;19.74;60.38;100871.94;5030870;28;20177;-61
2022/05/07 01:43:09;;;;;;;5.87;2.80;;;;;;;19.72;60.53;100868.59;5030889;28;20179;-61
2022/05/07 01:45:34;;;;;;;4.03;2.60;;;;;;;19.73;60.28;100870.28;5031354;28;20180;-61
2022/05/07 01:48:13;;;;;;;6.17;2.90;;;;;;;19.73;60.49;100880.91;5030949;28;20185;-61
2022/05/07 01:50:39;;;;;;;3.63;2.40;;;;;;;19.73;60.31;100876.00;5030874;28;20226;-61
2022/05/07 01:53:09;;;;;;;4.37;2.70;;;;;;;19.71;60.71;100866.94;5030504;28;20455;-61
2022/05/07 01:55:35;;;;;;;5.40;3.07;;;;;;;19.71;60.90;100877.59;5013522;28;20453;-61
2022/05/07 01:58:00;;;;;;;5.47;2.60;;;;;;;19.71;60.63;100875.53;5030654;28;20427;-61
2022/05/07 02:00:26;;;;;;;4.60;2.73;;;;;;;19.69;60.73;100880.84;5013342;28;20180;-61
2022/05/07 02:02:51;;;;;;;4.37;2.60;;;;;;;19.69;60.59;100875.09;5030121;28;20199;-61
2022/05/07 02:05:17;;;;;;;4.03;2.73;;;;;;;19.70;60.57;100867.31;5031361;28;20172;-61
2022/05/07 02:07:42;;;;;;;4.83;2.30;;;;;;;19.69;60.73;100869.38;5029956;28;20180;-61
2022/05/07 02:10:08;;;;;;;4.83;2.70;;;;;;;19.68;60.76;100867.72;5030893;28;20594;-62
2022/05/07 02:12:34;;;;;;;3.67;2.30;;;;;;;19.67;60.85;100868.91;5031479;28;20196;-61
2022/05/07 02:14:59;;;;;;;6.10;2.73;;;;;;;19.68;60.56;100864.84;5034747;28;20792;-61
2022/05/07 02:17:24;;;;;;;5.77;3.40;;;;;;;19.68;60.46;100867.72;5034375;28;20234;-61
2022/05/07 02:19:50;;;;;;;4.80;2.73;;;;;;;19.67;60.77;100859.50;5034946;28;20658;-61
2022/05/07 02:22:15;;;;;;;6.17;3.10;;;;;;;19.67;60.68;100866.03;5034498;28;20176;-61
2022/05/07 02:24:41;;;;;;;5.63;2.87;;;;;;;19.66;60.52;100875.84;5034685;28;20211;-61
2022/05/07 02:27:06;;;;;;;4.13;2.63;;;;;;;19.66;60.71;100872.16;5034551;28;20180;-61
2022/05/07 02:29:32;;;;;;;5.10;3.10;;;;;;;19.65;60.54;100868.44;5034121;28;20243;-61
2022/05/07 02:32:03;;;;;;;5.27;2.40;;;;;;;19.65;60.37;100885.66;5034415;28;20181;-61
2022/05/07 02:34:37;;;;;;;8.27;2.70;;;;;;;19.66;60.32;100875.84;5034127;28;20260;-61
2022/05/07 02:37:03;;;;;;;4.50;2.80;;;;;;;19.66;60.40;100872.16;5033329;28;20492;-61
2022/05/07 02:39:29;;;;;;;4.77;3.10;;;;;;;19.65;60.43;100877.03;5032768;28;20841;-61
2022/05/07 02:44:39;;;;;;;5.47;2.83;;;;;;;19.65;60.50;100870.47;5031553;28;20650;-61
2022/05/07 02:47:04;;;;;;;4.07;2.40;;;;;;;19.65;60.68;100879.06;5014398;28;20498;-61
2022/05/07 02:49:30;;;;;;;4.17;2.33;;;;;;;19.66;60.61;100872.16;5032238;28;20527;-61
2022/05/07 02:51:56;;;;;;;3.30;2.33;;;;;;;19.66;60.64;100880.75;5032314;28;20230;-61
2022/05/07 02:54:21;;;;;;;3.60;2.77;;;;;;;19.65;60.48;100876.22;5034032;28;20949;-61
2022/05/07 02:56:47;;;;;;;4.37;2.80;;;;;;;19.65;60.86;100884.81;5016331;28;20177;-61
2022/05/07 02:59:12;;;;;;;4.07;2.50;;;;;;;19.65;60.56;100881.94;5033980;28;20203;-61
2022/05/07 03:01:41;;;;;;;5.70;2.60;;;;;;;19.65;60.41;100882.78;5033938;28;20543;-61
2022/05/07 03:04:06;;;;;;;3.10;2.30;;;;;;;19.65;60.42;100882.78;5032951;28;20311;-61
2022/05/07 03:06:31;;;;;;;4.67;2.40;;;;;;;19.66;60.73;100875.84;5032118;28;20423;-61
2022/05/07 03:08:57;;;;;;;3.80;2.57;;;;;;;19.64;60.47;100886.00;5031476;28;20176;-61
2022/05/07 03:11:23;;;;;;;5.03;2.40;;;;;;;19.65;60.41;100885.66;5031994;28;20199;-61
2022/05/07 03:13:48;;;;;;;4.57;2.50;;;;;;;19.66;60.33;100889.34;5031998;28;20192;-61
2022/05/07 03:16:13;;;;;;;3.67;2.20;;;;;;;19.64;60.49;100878.25;5031814;28;20187;-61
2022/05/07 03:18:39;;;;;;;3.93;2.40;;;;;;;19.64;60.43;100878.25;5031712;28;20172;-61
2022/05/07 03:21:04;;;;;;;3.33;2.17;;;;;;;19.65;60.49;100877.03;5033653;28;20558;-61
2022/05/07 03:23:30;;;;;;;4.03;2.50;;;;;;;19.64;60.46;100866.81;5033597;28;20615;-61
2022/05/07 03:25:55;;;;;;;4.13;2.40;;;;;;;19.67;60.27;100877.50;5032608;28;20466;-61
2022/05/07 03:28:21;;;;;;;3.77;2.30;;;;;;;19.65;60.67;100884.81;5033575;28;20673;-61
2022/05/07 03:30:46;;;;;;;4.57;2.30;;;;;;;19.64;60.37;100878.25;5033164;28;20239;-61
2022/05/07 03:33:12;;;;;;;3.80;2.20;;;;;;;19.64;60.42;100883.16;5033143;28;20204;-61
2022/05/07 03:35:39;;;;;;;3.90;2.43;;;;;;;19.64;60.39;100881.13;5033396;28;20168;-61
2022/05/07 03:38:04;;;;;;;3.43;2.37;;;;;;;19.65;60.25;100874.19;5033470;28;20419;-61
2022/05/07 03:40:30;;;;;;;3.80;2.80;;;;;;;19.65;60.24;100877.03;5033257;28;20470;-61
2022/05/07 03:42:56;;;;;;;3.77;2.33;;;;;;;19.65;60.41;100877.03;5033122;28;20226;-61
2022/05/07 03:45:21;;;;;;;3.57;2.13;;;;;;;19.66;60.50;100875.03;5033222;28;20419;-61
2022/05/07 03:47:47;;;;;;;3.17;2.17;;;;;;;19.65;60.36;100877.03;5032943;28;20534;-61
2022/05/07 03:50:12;;;;;;;3.70;2.67;;;;;;;19.64;60.24;100875.41;5033112;28;20188;-61
2022/05/07 03:55:22;;;;;;;2.97;2.13;;;;;;;19.65;60.21;100879.06;5033047;28;20595;-61
2022/05/07 03:57:47;;;;;;;3.50;1.90;;;;;;;19.64;60.32;100886.84;5032882;28;20423;-61
2022/05/07 04:00:13;;;;;;;4.33;2.70;;;;;;;19.63;60.35;100885.19;5032824;28;20191;-61
2022/05/07 04:02:39;;;;;;;4.70;2.10;;;;;;;19.64;60.37;100895.44;5032989;28;20257;-61
2022/05/07 04:05:04;;;;;;;3.43;2.30;;;;;;;19.65;60.31;100899.13;5033081;28;20172;-61
2022/05/07 04:07:30;;;;;;;4.10;2.27;;;;;;;19.63;60.36;100890.09;5032032;28;20229;-61
2022/05/07 04:09:55;;;;;;;3.37;2.13;;;;;;;19.63;60.33;100892.94;5030353;28;20511;-61
2022/05/07 04:12:21;;;;;;;3.13;2.30;;;;;;;19.62;60.34;100891.28;5031453;28;20180;-61
2022/05/07 04:14:47;;;;;;;3.23;2.17;;;;;;;19.64;60.34;100891.75;5031868;28;20250;-61
2022/05/07 04:17:13;;;;;;;2.87;1.93;;;;;;;19.63;60.32;100887.22;5032486;28;20227;-61
2022/05/07 04:19:39;;;;;;;3.23;2.03;;;;;;;19.62;60.27;100889.25;5032269;28;20268;-61
2022/05/07 04:22:04;;;;;;;3.80;2.20;;;;;;;19.62;60.35;100892.09;5032245;28;20918;-61
2022/05/07 04:24:33;;;;;;;3.97;2.47;;;;;;;19.61;60.27;100889.66;5032670;28;20422;-61
2022/05/07 04:26:58;;;;;;;3.70;2.60;;;;;;;19.61;60.23;100893.31;5032517;28;20157;-61
2022/05/07 04:29:23;;;;;;;4.30;2.53;;;;;;;19.60;60.48;100894.53;5031680;28;20486;-61
2022/05/07 04:31:50;;;;;;;3.13;2.30;;;;;;;19.60;60.26;100887.97;5014222;28;20200;-61
2022/05/07 04:34:15;;;;;;;3.40;2.00;;;;;;;19.60;60.33;100887.97;5032431;28;21057;-61
2022/05/07 04:36:42;;;;;;;3.73;2.43;;;;;;;19.60;60.45;100890.81;5031181;28;20303;-61
2022/05/07 04:39:07;;;;;;;7.00;2.37;;;;;;;19.59;60.26;100892.88;5031835;28;20238;-61
2022/05/07 04:41:33;;;;;;;5.10;2.10;;;;;;;19.59;60.42;100883.44;5032375;28;20426;-61
2022/05/07 04:43:58;;;;;;;3.37;2.20;;;;;;;19.62;60.26;100889.25;5031688;28;20192;-61
2022/05/07 04:46:24;;;;;;;2.63;1.83;;;;;;;19.61;60.18;100895.38;5031060;28;20533;-61
2022/05/07 04:48:50;;;;;;;3.27;2.30;;;;;;;19.61;60.20;100893.31;5032382;28;20238;-61
2022/05/07 04:51:15;;;;;;;3.10;1.87;;;;;;;19.62;60.06;100892.09;5031768;28;20191;-61
2022/05/07 04:53:40;;;;;;;3.10;2.20;;;;;;;19.60;60.25;100888.81;5032147;28;20204;-61
2022/05/07 04:56:06;;;;;;;3.00;2.00;;;;;;;19.62;60.18;100894.16;5031795;28;20187;-61
2022/05/07 04:58:31;;;;;;;3.97;2.70;;;;;;;19.60;60.23;100883.06;5031837;28;20639;-61
2022/05/07 05:00:57;;;;;;;3.30;2.20;;;;;;;19.62;60.32;100897.84;5031765;28;20177;-61
2022/05/07 05:03:22;;;;;;;2.90;1.80;;;;;;;19.63;60.22;100896.66;5032031;28;20180;-61
2022/05/07 05:05:48;;;;;;;3.47;2.23;;;;;;;19.63;60.04;100893.78;5031585;28;20180;-61
2022/05/07 05:08:14;;;;;;;3.43;2.00;;;;;;;19.64;60.34;100895.44;5031776;28;20173;-61
2022/05/07 05:10:39;;;;;;;2.80;2.20;;;;;;;19.65;60.00;100897.09;5030918;28;20512;-61
2022/05/07 05:13:05;;;;;;;5.23;2.30;;;;;;;19.63;60.18;100893.78;5031782;28;20203;-61
2022/05/07 05:15:31;;;;;;;3.37;2.00;;;;;;;19.63;60.52;100892.94;5031375;28;20705;-61
2022/05/07 05:17:56;;;;;;;3.10;1.90;;;;;;;19.65;60.32;100902.84;5031397;28;20306;-61
2022/05/07 05:20:22;;;;;;;2.47;1.80;;;;;;;19.64;60.30;100901.19;5031166;28;20489;-61
2022/05/07 05:22:48;;;;;;;3.37;1.97;;;;;;;19.62;60.14;100903.56;5031589;28;20564;-61
2022/05/07 05:25:14;;;;;;;2.70;2.03;;;;;;;19.64;60.31;100904.03;5031782;28;20188;-61
2022/05/07 05:27:39;;;;;;;4.37;2.17;;;;;;;19.64;60.23;100914.66;5031168;28;20426;-61
2022/05/07 05:30:05;;;;;;;3.10;2.20;;;;;;;19.63;60.51;100915.88;5031081;28;20471;-61
2022/05/07 05:32:31;;;;;;;3.77;2.33;;;;;;;19.62;60.33;100911.34;5030880;28;20210;-61
2022/05/07 05:34:56;;;;;;;3.30;2.30;;;;;;;19.60;60.48;100906.00;5012926;28;20427;-61
2022/05/07 05:37:22;;;;;;;3.33;2.00;;;;;;;19.62;60.33;100915.03;5031268;28;20490;-61
2022/05/07 05:39:47;;;;;;;3.17;1.87;;;;;;;19.61;60.39;100913.38;5031170;28;20176;-61
2022/05/07 05:42:13;;;;;;;3.37;2.27;;;;;;;19.63;59.82;100915.88;5030952;28;20701;-61
2022/05/07 05:44:39;;;;;;;3.37;2.20;;;;;;;19.60;60.27;100906.00;5031299;28;20187;-61
2022/05/07 05:47:07;;;;;;;3.73;2.10;;;;;;;19.61;60.43;100915.41;5030852;28;20176;-61
2022/05/07 05:49:33;;;;;;;3.33;2.40;;;;;;;19.60;60.36;100908.84;5031075;28;20176;-61
2022/05/07 05:52:00;;;;;;;3.53;1.90;;;;;;;19.63;60.41;100913.00;5030892;28;20826;-61
2022/05/07 05:54:26;;;;;;;3.50;1.87;;;;;;;19.63;60.36;100915.88;5013646;28;20774;-61
2022/05/07 05:56:52;;;;;;;3.00;1.77;;;;;;;19.61;60.23;100921.97;5030755;28;20419;-61
2022/05/07 05:59:17;;;;;;;3.83;2.07;;;;;;;19.62;60.27;100923.63;5031023;28;20640;-61
2022/05/07 06:01:43;;;;;;;2.50;1.80;;;;;;;19.63;60.17;100924.47;5030771;28;20510;-61
2022/05/07 06:04:08;;;;;;;2.60;1.93;;;;;;;19.63;60.27;100925.31;5030926;28;20177;-61
2022/05/07 06:06:33;;;;;;;3.20;1.90;;;;;;;19.61;60.16;100924.81;5030715;28;20542;-61
2022/05/07 06:08:59;;;;;;;3.40;2.07;;;;;;;19.62;60.22;100919.94;5030924;28;20619;-61
2022/05/07 06:11:24;;;;;;;2.50;1.80;;;;;;;19.63;60.08;100928.16;5029728;28;20227;-60
2022/05/07 06:13:50;;;;;;;4.00;2.30;;;;;;;19.62;60.17;100925.66;5030325;28;20200;-60
2022/05/07 06:16:17;;;;;;;3.10;1.87;;;;;;;19.60;60.24;100920.31;5030806;28;20172;-60
2022/05/07 06:18:42;;;;;;;3.83;2.33;;;;;;;19.62;60.34;100922.81;5031069;28;20191;-61
2022/05/07 06:21:08;;;;;;;3.00;2.07;;;;;;;19.62;60.21;100926.47;5030636;28;20419;-61
2022/05/07 06:23:33;;;;;;;3.07;1.97;;;;;;;19.62;60.06;100926.47;5030307;28;20172;-61
2022/05/07 06:28:42;;;;;;;2.97;1.83;;;;;;;19.59;60.45;100920.69;5030526;28;20287;-61
2022/05/07 06:31:10;;;;;;;2.47;1.70;;;;;;;19.59;60.22;100926.41;5030510;28;20404;-61
2022/05/07 06:33:39;;;;;;;3.47;2.07;;;;;;;19.59;60.18;100921.50;5030813;28;20268;-61
2022/05/07 06:36:06;;;;;;;4.07;2.20;;;;;;;19.60;60.43;100925.19;5029792;28;20976;-61
2022/05/07 06:38:31;;;;;;;3.40;2.00;;;;;;;19.60;60.23;100923.16;5029341;28;20415;-61
2022/05/07 06:41:02;;;;;;;2.60;1.60;;;;;;;19.60;60.34;100920.31;5030618;28;20434;-61
2022/05/07 06:43:28;;;;;;;2.93;2.03;;;;;;;19.61;60.25;100924.81;5030951;28;20553;-61
2022/05/07 06:45:54;;;;;;;2.90;2.03;;;;;;;19.59;60.17;100924.38;5030341;28;20486;-61
2022/05/07 06:48:19;;;;;;;2.40;1.73;;;;;;;19.59;60.20;100924.38;5030525;28;20917;-61
2022/05/07 06:50:44;;;;;;;2.63;1.73;;;;;;;19.60;60.20;100920.31;5030171;28;20661;-61
2022/05/07 06:53:10;;;;;;;2.60;1.60;;;;;;;19.58;60.29;100924.75;5030731;28;20196;-61
2022/05/07 06:55:54;;;;;;;3.47;1.90;;;;;;;19.57;60.30;100917.38;5030479;28;20179;-62
2022/05/07 06:58:23;;;;;;;5.57;1.80;;;;;;;19.58;60.27;100928.44;5030421;28;20194;-60
2022/05/07 07:00:48;;;;;;;3.13;2.07;;;;;;;19.59;60.18;100932.97;5033166;28;20415;-61
2022/05/07 07:03:14;;;;;;;2.57;1.73;;;;;;;19.57;60.25;100926.78;5034410;28;20875;-61
2022/05/07 07:05:39;;;;;;;2.47;1.70;;;;;;;19.56;60.33;100930.84;5033936;28;20175;-61
2022/05/07 07:08:05;;;;;;;2.93;1.83;;;;;;;19.56;60.24;100922.25;5034389;28;20183;-62
2022/05/07 07:10:30;;;;;;;2.63;1.90;;;;;;;19.56;60.40;100925.13;5033873;28;20169;-60
2022/05/07 07:12:56;;;;;;;2.70;1.90;;;;;;;19.57;60.24;100923.09;5033871;28;20206;-60
2022/05/07 07:15:23;;;;;;;3.30;2.00;;;;;;;19.57;60.31;100929.63;5033153;28;20169;-60
2022/05/07 07:17:48;;;;;;;3.13;2.10;;;;;;;19.57;60.02;100931.69;5033712;28;20176;-60
2022/05/07 07:20:15;;;;;;;2.53;1.80;;;;;;;19.56;60.36;100927.97;5033355;28;20771;-61
2022/05/07 07:22:40;;;;;;;2.40;1.60;;;;;;;19.57;60.34;100928.81;5032878;28;20256;-61
2022/05/07 07:25:06;;;;;;;2.50;1.73;;;;;;;19.55;60.36;100937.78;5033160;28;20445;-60
2022/05/07 07:27:32;;;;;;;3.27;1.87;;;;;;;19.56;60.41;100933.72;5033574;28;20187;-62
2022/05/07 07:29:57;;;;;;;3.10;2.00;;;;;;;19.55;60.30;100932.06;5007502;28;20774;-61
2022/05/07 07:32:22;;;;;;;5.07;2.03;;;;;;;19.57;60.48;100920.22;5010598;28;20962;-61
2022/05/07 07:34:48;;;;;;;6.13;2.70;;;;;;;19.69;59.88;100920.94;5012101;28;20523;-61
2022/05/07 07:37:14;;;;;;;3.30;2.80;;;;;;;19.71;59.54;100917.72;5013081;28;20161;-62
2022/05/07 07:39:39;;;;;;;6.10;3.30;;;;;;;19.67;59.46;100911.88;5012087;28;20169;-61
2022/05/07 07:42:05;;;;;;;5.60;3.40;;;;;;;19.69;59.15;100911.50;5012463;28;20180;-61
2022/05/07 07:44:31;;;;;;;7.63;4.77;;;;;;;19.71;58.97;100914.84;5013201;28;20838;-62
2022/05/07 07:49:40;;;;;;;4.83;3.50;;;;;;;19.73;59.19;100921.84;5013382;28;20315;-62
2022/05/07 07:52:05;;;;;;;5.73;3.90;;;;;;;19.72;58.75;100916.50;5012005;28;20432;-62
2022/05/07 07:54:31;;;;;;;7.10;4.23;;;;;;;19.65;58.47;100920.00;5011147;28;20664;-60
2022/05/07 07:56:58;;;;;;;5.90;4.00;;;;;;;19.60;57.80;100922.31;5012626;28;20196;-61
2022/05/07 07:59:23;;;;;;;13.87;6.87;;;;;;;19.67;58.86;100914.72;5013115;28;20272;-61
2022/05/07 08:01:49;;;;;;;10.73;7.20;;;;;;;19.78;59.13;100915.00;5012707;28;20450;-61
2022/05/07 08:04:14;;;;;;;8.20;5.10;;;;;;;19.76;58.83;100909.63;5011920;28;20184;-61
2022/05/07 08:06:39;;;;;;;8.57;5.33;;;;;;;19.75;58.79;100910.84;5012550;28;20184;-62
2022/05/07 08:11:55;;;;;;;8.40;4.80;;;;;;;19.76;58.60;100905.94;5010502;28;20234;-62
2022/05/07 08:14:21;;;;;;;9.27;5.40;;;;;;;19.81;57.91;100908.53;5012937;28;20522;-61
2022/05/07 08:16:46;;;;;;;8.23;5.27;;;;;;;19.82;58.51;100915.91;5011249;28;20424;-61
2022/05/07 08:19:12;;;;;;;9.90;5.50;;;;;;;19.81;58.35;100912.19;5012916;28;20173;-61
2022/05/07 08:21:37;;;;;;;12.17;4.83;;;;;;;19.85;58.41;100915.13;5012279;28;20577;-60
2022/05/07 08:24:03;;;;;;;11.07;5.17;;;;;;;19.83;58.17;100915.53;5026937;28;20227;-61
2022/05/07 08:26:29;;;;;;;12.07;4.83;;;;;;;19.80;58.15;100910.53;5011142;28;20185;-60
2022/05/07 08:28:54;;;;;;;6.90;4.80;;;;;;;19.81;58.46;100912.19;5012409;28;20223;-62
2022/05/07 08:31:23;;;;;;;9.23;5.30;;;;;;;19.83;58.16;100918.41;5030769;28;20246;-61
2022/05/07 08:33:49;;;;;;;9.20;5.23;;;;;;;19.82;58.16;100913.84;5026481;28;20262;-61
2022/05/07 08:36:15;;;;;;;8.77;4.93;;;;;;;19.83;56.98;100912.69;5013147;28;20427;-61
2022/05/07 08:38:40;;;;;;;8.80;4.87;;;;;;;19.87;57.38;100918.47;5030019;28;20922;-61
2022/05/07 08:41:06;;;;;;;6.10;4.77;;;;;;;19.92;58.31;100904.66;5030875;28;20266;-61
2022/05/07 08:43:33;;;;;;;9.43;5.00;;;;;;;19.93;58.30;100906.34;5030774;28;20250;-61
2022/05/07 08:45:58;;;;;;;7.10;4.60;;;;;;;19.90;57.82;100907.09;5030566;28;20645;-60
2022/05/07 08:48:24;;;;;;;8.80;5.03;;;;;;;19.92;57.36;100901.00;5030603;28;20426;-61
2022/05/07 08:50:51;;;;;;;11.43;5.40;;;;;;;19.91;57.65;100902.19;5030117;28;20191;-61
2022/05/07 08:53:16;;;;;;;11.63;5.30;;;;;;;19.93;57.81;100896.91;5012648;28;20254;-61
2022/05/07 08:55:42;;;;;;;9.70;4.97;;;;;;;20.00;57.99;100900.75;5013942;28;20431;-61
2022/05/07 08:58:07;;;;;;;7.57;4.80;;;;;;;20.01;58.48;100907.34;5030969;28;20180;-60
2022/05/07 09:00:33;;;;;;;7.07;4.87;;;;;;;19.98;59.01;100897.47;5031843;28;20254;-60
2022/05/07 09:03:00;;;;;;;8.90;5.20;;;;;;;19.95;59.12;100891.63;5031766;28;20541;-61
2022/05/07 09:05:33;;;;;;;9.07;5.40;;;;;;;19.93;58.85;100903.47;5030400;28;20617;-61
2022/05/07 09:07:59;;;;;;;10.50;5.20;;;;;;;19.99;59.28;100898.25;5030838;28;20438;-60
2022/05/07 09:10:26;;;;;;;8.20;4.70;;;;;;;20.03;58.85;100891.41;5031655;28;20415;-61
2022/05/07 09:12:52;;;;;;;8.73;4.80;;;;;;;20.05;59.03;100888.16;5013179;28;20539;-60
2022/05/07 09:15:17;;;;;;;9.70;4.53;;;;;;;20.05;59.35;100888.16;5031164;28;20435;-61
2022/05/07 09:17:45;;;;;;;7.30;4.20;;;;;;;20.06;59.39;100890.66;5031364;28;20185;-60
2022/05/07 09:20:15;;;;;;;10.27;4.43;;;;;;;20.05;59.44;100883.25;5030888;28;20180;-60
2022/05/07 09:22:55;;;;;;;9.10;4.30;;;;;;;20.10;59.31;100882.16;5029257;28;20437;-61
2022/05/07 09:25:24;;;;;;;6.00;4.17;;;;;;;20.08;59.21;100887.44;5030542;28;20442;-60
2022/05/07 09:27:55;;;;;;;6.47;4.30;;;;;;;20.11;59.27;100884.66;5030974;28;20922;-61
2022/05/07 09:30:22;;;;;;;6.27;3.93;;;;;;;20.12;59.30;100879.75;5030910;28;20482;-61
2022/05/07 09:32:48;;;;;;;10.50;4.87;;;;;;;20.10;58.12;100877.25;5030628;28;20467;-61
2022/05/07 09:38:02;;;;;;;8.77;4.00;;;;;;;20.04;57.93;100875.03;5030584;28;20434;-61
2022/05/07 09:40:28;;;;;;;7.00;4.40;;;;;;;20.03;57.93;100877.09;5029832;28;20430;-61
2022/05/07 09:43:00;;;;;;;7.40;3.80;;;;;;;20.01;57.76;100865.16;5030190;28;20906;-61
2022/05/07 09:45:26;;;;;;;6.57;3.90;;;;;;;19.99;56.81;100864.72;5030760;28;20435;-61
2022/05/07 09:47:52;;;;;;;11.03;4.50;;;;;;;19.97;57.15;100869.97;5031002;28;20422;-61
2022/05/07 09:50:22;;;;;;;9.73;4.50;;;;;;;20.00;56.84;100874.13;5030598;28;20767;-61
2022/05/07 09:58:17;;;;;;;8.30;4.67;;;;;;;20.35;57.31;100861.38;5027706;28;20570;-61
2022/05/07 10:01:09;;;;;;;6.90;4.70;;;;;;;20.40;57.29;100861.06;5009807;28;20529;-61
2022/05/07 10:03:55;;;;;;;10.83;6.17;;;;;;;20.48;57.66;100857.16;5014020;28;20431;-61
2022/05/07 10:06:31;;;;;;;9.70;5.97;;;;;;;20.60;54.98;100848.34;5028886;28;20547;-61
2022/05/07 10:09:29;;;;;;;13.90;6.20;;;;;;;20.62;55.88;100854.53;5010114;28;20490;-61
2022/05/07 10:11:56;;;;;;;9.83;5.67;;;;;;;20.70;55.77;100849.75;4993176;28;20534;-61
2022/05/07 10:14:30;;;;;;;8.77;6.03;;;;;;;20.57;55.41;100843.38;5009566;28;20463;-62
2022/05/07 10:17:08;;;;;;;14.80;5.50;;;;;;;20.56;54.59;100840.88;5009530;28;20434;-61
2022/05/07 10:19:40;;;;;;;11.67;4.97;;;;;;;20.47;54.11;100834.59;5027417;28;20426;-61
2022/05/07 10:22:21;;;;;;;13.40;4.70;;;;;;;20.41;54.06;100842.66;5027498;28;20466;-61
2022/05/07 10:24:47;;;;;;;11.63;4.80;;;;;;;20.40;54.24;100849.59;5029647;28;20426;-61
2022/05/07 10:27:25;;;;;;;12.67;6.00;;;;;;;20.42;53.76;100840.63;5029398;28;20789;-61
2022/05/07 10:29:50;;;;;;;15.27;3.90;;;;;;;20.44;53.14;100835.34;4991349;28;20232;-61
2022/05/07 10:32:18;;;;;;;12.13;3.90;;;;;;;20.42;53.28;100843.50;4989719;28;20433;-60
2022/05/07 10:34:51;;;;;;;9.90;3.70;;;;;;;20.41;52.87;100842.66;5002457;28;20270;-61
2022/05/07 10:37:16;;;;;;;7.40;3.77;;;;;;;20.39;52.83;100839.34;5013585;28;20432;-61
2022/05/07 10:39:49;;;;;;;12.33;3.37;;;;;;;20.36;53.22;100836.41;5007471;28;20424;-61
2022/05/07 10:42:16;;;;;;;8.50;3.40;;;;;;;20.36;52.37;100833.56;5003082;28;20251;-61
2022/05/07 10:44:41;;;;;;;10.40;3.77;;;;;;;20.33;51.94;100828.56;5013332;28;20412;-61
2022/05/07 10:47:18;;;;;;;7.17;3.10;;;;;;;20.38;51.75;100823.34;5010225;28;20443;-61
2022/05/07 10:50:15;;;;;;;6.20;2.87;;;;;;;20.37;51.04;100824.53;5011033;28;20173;-61
2022/05/07 10:52:41;;;;;;;8.07;3.33;;;;;;;20.40;51.41;100822.94;4968565;28;20440;-61
2022/05/07 10:55:07;;;;;;;6.03;2.90;;;;;;;20.39;51.35;100819.28;5013368;28;20427;-61
2022/05/07 10:57:40;;;;;;;5.27;2.47;;;;;;;20.44;51.01;100815.25;5011885;28;20241;-61
2022/05/07 11:00:14;;;;;;;6.57;2.93;;;;;;;20.40;51.39;100811.47;5011991;28;20550;-61
2022/05/07 11:02:40;;;;;;;6.87;2.70;;;;;;;20.40;51.10;100809.47;5012963;28;20428;-61
2022/05/07 11:05:06;;;;;;;8.40;2.93;;;;;;;20.37;50.85;100815.13;5013004;28;20420;-61
2022/05/07 11:07:32;;;;;;;5.07;2.47;;;;;;;20.38;50.17;100811.88;5012137;28;20874;-61
2022/05/07 11:09:58;;;;;;;6.23;2.40;;;;;;;20.37;50.04;100815.94;5012422;28;20424;-61
2022/05/07 11:12:26;;;;;;;8.27;2.60;;;;;;;20.34;50.32;100807.28;4994145;28;20173;-61
2022/05/07 11:14:52;;;;;;;5.70;2.63;;;;;;;20.39;50.53;100807.81;5011377;28;20459;-61
2022/05/07 11:17:30;;;;;;;5.73;3.00;;;;;;;20.35;50.33;100809.78;5011814;28;20789;-61
2022/05/07 11:19:57;;;;;;;9.23;2.90;;;;;;;20.41;50.00;100793.91;5011938;28;20862;-61
2022/05/07 11:22:30;;;;;;;5.10;2.60;;;;;;;20.36;49.85;100799.94;5011263;28;20432;-61
2022/05/07 11:25:02;;;;;;;7.27;3.30;;;;;;;20.39;49.94;100804.09;5012490;28;20409;-61
2022/05/07 11:27:32;;;;;;;5.20;2.73;;;;;;;20.42;49.87;100801.28;5002388;28;20420;-61
2022/05/07 11:29:58;;;;;;;8.43;2.83;;;;;;;20.43;49.51;100794.38;5021116;28;20836;-61
2022/05/07 11:32:24;;;;;;;4.10;2.40;;;;;;;20.39;49.60;100798.34;5013181;28;20419;-61
2022/05/07 11:34:53;;;;;;;8.70;2.87;;;;;;;20.38;50.26;100791.81;5030910;28;20451;-61
2022/05/07 11:37:22;;;;;;;3.60;2.47;;;;;;;20.41;48.78;100793.09;5031025;28;20423;-61
2022/05/07 11:39:54;;;;;;;6.57;2.77;;;;;;;20.46;49.14;100795.63;5031255;28;20427;-61
2022/05/07 11:42:30;;;;;;;4.40;2.50;;;;;;;20.54;48.74;100806.84;5030607;28;20427;-61
2022/05/07 11:48:07;;;;;;;5.17;2.93;;;;;;;20.49;48.61;100789.13;5014994;28;20437;-61